sensor_id;sensor_type;location;lat;lon;timestamp;pressure;altitude;pressure_sealevel;temperature;humidity
54882;BME280;40775;51.448;4.742;2023-05-19T00:01:29;102559.91;;;10.98;100.00
54882;BME280;40775;51.448;4.742;2023-05-19T00:03:58;102557.06;;;10.93;100.00
54882;BME280;40775;51.448;4.742;2023-05-19T00:06:30;102554.50;;;10.95;100.00
54882;BME280;40775;51.448;4.742;2023-05-19T00:09:03;102550.75;;;10.90;100.00
54882;BME280;40775;51.448;4.742;2023-05-19T00:11:32;102559.47;;;10.89;100.00
54882;BME280;40775;51.448;4.742;2023-05-19T00:14:00;102554.00;;;10.84;100.00
54882;BME280;40775;51.448;4.742;2023-05-19T00:16:28;102543.50;;;10.84;100.00
54882;BME280;40775;51.448;4.742;2023-05-19T00:19:01;102543.97;;;10.75;100.00
54882;BME280;40775;51.448;4.742;2023-05-19T00:21:29;102542.25;;;10.76;100.00
54882;BME280;40775;51.448;4.742;2023-05-19T00:23:57;102541.06;;;10.69;100.00
54882;BME280;40775;51.448;4.742;2023-05-19T00:26:26;102536.56;;;10.67;100.00
54882;BME280;40775;51.448;4.742;2023-05-19T00:28:53;102537.31;;;10.64;100.00
54882;BME280;40775;51.448;4.742;2023-05-19T00:31:21;102535.81;;;10.69;100.00
54882;BME280;40775;51.448;4.742;2023-05-19T00:33:48;102535.66;;;10.66;100.00
54882;BME280;40775;51.448;4.742;2023-05-19T00:36:15;102537.84;;;10.57;100.00
54882;BME280;40775;51.448;4.742;2023-05-19T00:38:42;102528.31;;;10.59;100.00
54882;BME280;40775;51.448;4.742;2023-05-19T00:41:09;102536.19;;;10.59;100.00
54882;BME280;40775;51.448;4.742;2023-05-19T00:43:36;102535.78;;;10.50;100.00
54882;BME280;40775;51.448;4.742;2023-05-19T00:46:03;102531.41;;;10.50;100.00
54882;BME280;40775;51.448;4.742;2023-05-19T00:48:30;102537.84;;;10.57;100.00
54882;BME280;40775;51.448;4.742;2023-05-19T00:50:59;102533.06;;;10.48;100.00
54882;BME280;40775;51.448;4.742;2023-05-19T00:53:33;102534.72;;;10.46;100.00
54882;BME280;40775;51.448;4.742;2023-05-19T00:56:01;102534.94;;;10.51;100.00
54882;BME280;40775;51.448;4.742;2023-05-19T00:58:30;102540.06;;;10.48;100.00
54882;BME280;40775;51.448;4.742;2023-05-19T01:00:59;102544.19;;;10.43;100.00
54882;BME280;40775;51.448;4.742;2023-05-19T01:03:34;102539.53;;;10.37;100.00
54882;BME280;40775;51.448;4.742;2023-05-19T01:06:03;102539.44;;;10.36;100.00
54882;BME280;40775;51.448;4.742;2023-05-19T01:08:36;102535.72;;;10.31;100.00
54882;BME280;40775;51.448;4.742;2023-05-19T01:11:05;102538.56;;;10.35;100.00
54882;BME280;40775;51.448;4.742;2023-05-19T01:13:34;102536.47;;;10.28;100.00
54882;BME280;40775;51.448;4.742;2023-05-19T01:16:28;102530.44;;;10.31;100.00
54882;BME280;40775;51.448;4.742;2023-05-19T01:22:47;102536.88;;;10.19;100.00
54882;BME280;40775;51.448;4.742;2023-05-19T01:31:25;102526.88;;;10.12;100.00
54882;BME280;40775;51.448;4.742;2023-05-19T01:33:53;102515.28;;;10.07;100.00
54882;BME280;40775;51.448;4.742;2023-05-19T01:36:22;102522.31;;;10.08;100.00
54882;BME280;40775;51.448;4.742;2023-05-19T01:38:52;102525.16;;;10.13;100.00
54882;BME280;40775;51.448;4.742;2023-05-19T01:41:21;102525.78;;;10.07;100.00
54882;BME280;40775;51.448;4.742;2023-05-19T01:43:49;102527.13;;;9.99;100.00
54882;BME280;40775;51.448;4.742;2023-05-19T01:46:16;102524.44;;;9.98;100.00
54882;BME280;40775;51.448;4.742;2023-05-19T01:48:44;102527.88;;;9.97;100.00
54882;BME280;40775;51.448;4.742;2023-05-19T01:51:12;102525.47;;;10.01;100.00
54882;BME280;40775;51.448;4.742;2023-05-19T01:53:40;102525.31;;;9.98;100.00
54882;BME280;40775;51.448;4.742;2023-05-19T01:56:07;102522.78;;;10.00;100.00
54882;BME280;40775;51.448;4.742;2023-05-19T01:58:54;102526.00;;;9.94;100.00
54882;BME280;40775;51.448;4.742;2023-05-19T02:01:36;102517.00;;;9.89;100.00
54882;BME280;40775;51.448;4.742;2023-05-19T02:04:44;102521.44;;;9.90;100.00
54882;BME280;40775;51.448;4.742;2023-05-19T02:07:30;102514.53;;;9.92;100.00
54882;BME280;40775;51.448;4.742;2023-05-19T02:10:13;102520.59;;;9.91;100.00
54882;BME280;40775;51.448;4.742;2023-05-19T02:12:43;102524.06;;;9.90;100.00
54882;BME280;40775;51.448;4.742;2023-05-19T02:15:17;102526.28;;;9.82;100.00
54882;BME280;40775;51.448;4.742;2023-05-19T02:17:47;102516.75;;;9.84;100.00
54882;BME280;40775;51.448;4.742;2023-05-19T02:20:17;102514.94;;;9.83;100.00
54882;BME280;40775;51.448;4.742;2023-05-19T02:22:45;102518.66;;;9.87;100.00
54882;BME280;40775;51.448;4.742;2023-05-19T02:25:12;102512.09;;;9.79;100.00
54882;BME280;40775;51.448;4.742;2023-05-19T02:27:40;102505.81;;;9.75;100.00
54882;BME280;40775;51.448;4.742;2023-05-19T02:30:08;102506.63;;;9.74;100.00
54882;BME280;40775;51.448;4.742;2023-05-19T02:32:35;102503.72;;;9.68;100.00
54882;BME280;40775;51.448;4.742;2023-05-19T02:35:03;102498.41;;;9.67;100.00
54882;BME280;40775;51.448;4.742;2023-05-19T02:37:30;102508.06;;;9.68;100.00
54882;BME280;40775;51.448;4.742;2023-05-19T02:39:58;102503.63;;;9.67;100.00
54882;BME280;40775;51.448;4.742;2023-05-19T02:42:25;102500.28;;;9.69;100.00
54882;BME280;40775;51.448;4.742;2023-05-19T02:44:53;102499.69;;;9.58;100.00
54882;BME280;40775;51.448;4.742;2023-05-19T02:47:21;102501.78;;;9.48;100.00
54882;BME280;40775;51.448;4.742;2023-05-19T02:49:48;102494.66;;;9.45;100.00
54882;BME280;40775;51.448;4.742;2023-05-19T02:52:15;102504.41;;;9.48;100.00
54882;BME280;40775;51.448;4.742;2023-05-19T02:54:42;102504.41;;;9.48;100.00
54882;BME280;40775;51.448;4.742;2023-05-19T02:57:09;102494.59;;;9.44;100.00
54882;BME280;40775;51.448;4.742;2023-05-19T02:59:37;102502.63;;;9.47;100.00
54882;BME280;40775;51.448;4.742;2023-05-19T03:02:04;102507.47;;;9.39;100.00
54882;BME280;40775;51.448;4.742;2023-05-19T03:04:31;102508.78;;;9.31;100.00
54882;BME280;40775;51.448;4.742;2023-05-19T03:06:58;102504.53;;;9.33;100.00
54882;BME280;40775;51.448;4.742;2023-05-19T03:09:25;102504.69;;;9.36;100.00
54882;BME280;40775;51.448;4.742;2023-05-19T03:11:52;102494.78;;;9.30;100.00
54882;BME280;40775;51.448;4.742;2023-05-19T03:14:20;102497.16;;;9.26;100.00
54882;BME280;40775;51.448;4.742;2023-05-19T03:16:50;102495.13;;;9.20;100.00
54882;BME280;40775;51.448;4.742;2023-05-19T03:19:17;102503.56;;;9.15;100.00
54882;BME280;40775;51.448;4.742;2023-05-19T03:21:44;102501.03;;;9.16;100.00
54882;BME280;40775;51.448;4.742;2023-05-19T03:24:12;102503.88;;;9.21;100.00
54882;BME280;40775;51.448;4.742;2023-05-19T03:26:39;102510.78;;;9.19;100.00
54882;BME280;40775;51.448;4.742;2023-05-19T03:29:06;102507.91;;;9.14;100.00
54882;BME280;40775;51.448;4.742;2023-05-19T03:31:34;102503.25;;;9.09;100.00
54882;BME280;40775;51.448;4.742;2023-05-19T03:34:01;102499.72;;;9.08;100.00
54882;BME280;40775;51.448;4.742;2023-05-19T03:36:28;102506.69;;;9.08;100.00
54882;BME280;40775;51.448;4.742;2023-05-19T03:38:58;102495.72;;;9.15;100.00
54882;BME280;40775;51.448;4.742;2023-05-19T03:41:25;102500.13;;;9.16;100.00
54882;BME280;40775;51.448;4.742;2023-05-19T03:43:52;102494.22;;;9.20;100.00
54882;BME280;40775;51.448;4.742;2023-05-19T03:46:19;102499.22;;;9.15;100.00
54882;BME280;40775;51.448;4.742;2023-05-19T03:48:47;102500.28;;;9.03;100.00
54882;BME280;40775;51.448;4.742;2023-05-19T03:51:14;102500.78;;;8.95;100.00
54882;BME280;40775;51.448;4.742;2023-05-19T03:53:41;102492.03;;;8.95;100.00
54882;BME280;40775;51.448;4.742;2023-05-19T03:56:09;102493.81;;;8.96;100.00
54882;BME280;40775;51.448;4.742;2023-05-19T03:58:39;102501.44;;;8.91;100.00
54882;BME280;40775;51.448;4.742;2023-05-19T04:01:10;102506.84;;;8.94;100.00
54882;BME280;40775;51.448;4.742;2023-05-19T04:03:37;102504.06;;;8.91;100.00
54882;BME280;40775;51.448;4.742;2023-05-19T04:06:05;102501.69;;;8.96;100.00
54882;BME280;40775;51.448;4.742;2023-05-19T04:08:32;102508.06;;;9.01;100.00
54882;BME280;40775;51.448;4.742;2023-05-19T04:10:59;102509.31;;;8.91;100.00
54882;BME280;40775;51.448;4.742;2023-05-19T04:13:26;102508.41;;;8.91;100.00
54882;BME280;40775;51.448;4.742;2023-05-19T04:15:53;102510.28;;;8.93;100.00
54882;BME280;40775;51.448;4.742;2023-05-19T04:18:20;102513.06;;;8.96;100.00
54882;BME280;40775;51.448;4.742;2023-05-19T04:20:47;102507.81;;;8.96;100.00
54882;BME280;40775;51.448;4.742;2023-05-19T04:23:14;102509.13;;;8.88;100.00
54882;BME280;40775;51.448;4.742;2023-05-19T04:25:42;102504.88;;;8.90;100.00
54882;BME280;40775;51.448;4.742;2023-05-19T04:28:09;102514.53;;;8.91;100.00
54882;BME280;40775;51.448;4.742;2023-05-19T04:30:36;102513.81;;;8.94;100.00
54882;BME280;40775;51.448;4.742;2023-05-19T04:33:04;102515.44;;;8.92;100.00
54882;BME280;40775;51.448;4.742;2023-05-19T04:35:31;102519.78;;;8.91;100.00
54882;BME280;40775;51.448;4.742;2023-05-19T04:37:58;102512.81;;;8.92;100.00
54882;BME280;40775;51.448;4.742;2023-05-19T04:40:27;102523.53;;;8.96;100.00
54882;BME280;40775;51.448;4.742;2023-05-19T04:42:57;102527.22;;;9.00;100.00
54882;BME280;40775;51.448;4.742;2023-05-19T04:45:24;102520.09;;;8.97;100.00
54882;BME280;40775;51.448;4.742;2023-05-19T04:47:51;102517.81;;;9.04;100.00
54882;BME280;40775;51.448;4.742;2023-05-19T04:50:23;102525.13;;;9.09;100.00
54882;BME280;40775;51.448;4.742;2023-05-19T04:52:50;102521.50;;;9.07;100.00
54882;BME280;40775;51.448;4.742;2023-05-19T04:55:18;102519.13;;;9.12;100.00
54882;BME280;40775;51.448;4.742;2023-05-19T04:57:45;102525.50;;;9.17;100.00
54882;BME280;40775;51.448;4.742;2023-05-19T05:00:13;102522.22;;;9.21;100.00
54882;BME280;40775;51.448;4.742;2023-05-19T05:02:40;102530.09;;;9.21;100.00
54882;BME280;40775;51.448;4.742;2023-05-19T05:05:09;102534.19;;;9.32;100.00
54882;BME280;40775;51.448;4.742;2023-05-19T05:07:36;102537.13;;;9.38;100.00
54882;BME280;40775;51.448;4.742;2023-05-19T05:10:03;102535.88;;;9.48;100.00
54882;BME280;40775;51.448;4.742;2023-05-19T05:12:31;102527.41;;;9.53;100.00
54882;BME280;40775;51.448;4.742;2023-05-19T05:14:59;102535.28;;;9.53;100.00
54882;BME280;40775;51.448;4.742;2023-05-19T05:17:27;102546.25;;;9.63;100.00
54882;BME280;40775;51.448;4.742;2023-05-19T05:19:54;102544.94;;;9.71;100.00
54882;BME280;40775;51.448;4.742;2023-05-19T05:22:22;102543.81;;;9.83;100.00
54882;BME280;40775;51.448;4.742;2023-05-19T05:24:49;102542.69;;;9.78;100.00
54882;BME280;40775;51.448;4.742;2023-05-19T05:27:17;102538.97;;;9.91;100.00
54882;BME280;40775;51.448;4.742;2023-05-19T05:29:44;102550.59;;;9.96;100.00
54882;BME280;40775;51.448;4.742;2023-05-19T05:32:11;102549.25;;;10.04;100.00
54882;BME280;40775;51.448;4.742;2023-05-19T05:34:38;102552.16;;;10.10;100.00
54882;BME280;40775;51.448;4.742;2023-05-19T05:37:06;102550.69;;;10.15;100.00
54882;BME280;40775;51.448;4.742;2023-05-19T05:39:33;102551.03;;;10.21;100.00
54882;BME280;40775;51.448;4.742;2023-05-19T05:42:00;102544.84;;;10.39;100.00
54882;BME280;40775;51.448;4.742;2023-05-19T05:44:28;102552.06;;;10.43;100.00
54882;BME280;40775;51.448;4.742;2023-05-19T05:46:55;102562.59;;;12.61;100.00
54882;BME280;40775;51.448;4.742;2023-05-19T05:49:22;102538.91;;;14.06;100.00
54882;BME280;40775;51.448;4.742;2023-05-19T05:51:50;102526.69;;;14.94;100.00
54882;BME280;40775;51.448;4.742;2023-05-19T05:54:32;102527.59;;;15.57;100.00
54882;BME280;40775;51.448;4.742;2023-05-19T05:56:59;102518.16;;;16.00;100.00
54882;BME280;40775;51.448;4.742;2023-05-19T05:59:28;102520.44;;;16.21;100.00
54882;BME280;40775;51.448;4.742;2023-05-19T06:01:55;102529.56;;;16.33;100.00
54882;BME280;40775;51.448;4.742;2023-05-19T06:04:22;102518.38;;;16.45;100.00
54882;BME280;40775;51.448;4.742;2023-05-19T06:06:49;102522.78;;;16.45;100.00
54882;BME280;40775;51.448;4.742;2023-05-19T06:09:18;102526.56;;;16.56;100.00
54882;BME280;40775;51.448;4.742;2023-05-19T06:11:45;102520.56;;;16.64;100.00
54882;BME280;40775;51.448;4.742;2023-05-19T06:14:12;102528.59;;;16.67;100.00
54882;BME280;40775;51.448;4.742;2023-05-19T06:16:39;102525.28;;;16.76;100.00
54882;BME280;40775;51.448;4.742;2023-05-19T06:19:06;102532.50;;;16.83;100.00
54882;BME280;40775;51.448;4.742;2023-05-19T06:21:34;102532.66;;;16.91;100.00
54882;BME280;40775;51.448;4.742;2023-05-19T06:24:01;102532.69;;;16.92;100.00
54882;BME280;40775;51.448;4.742;2023-05-19T06:26:28;102532.03;;;17.03;100.00
54882;BME280;40775;51.448;4.742;2023-05-19T06:28:55;102530.47;;;17.12;100.00
54882;BME280;40775;51.448;4.742;2023-05-19T06:31:22;102530.50;;;17.14;100.00
54882;BME280;40775;51.448;4.742;2023-05-19T06:33:52;102529.56;;;17.12;100.00
54882;BME280;40775;51.448;4.742;2023-05-19T06:36:19;102527.91;;;17.18;100.00
54882;BME280;40775;51.448;4.742;2023-05-19T06:38:46;102521.69;;;17.16;100.00
54882;BME280;40775;51.448;4.742;2023-05-19T06:41:13;102520.78;;;17.16;100.00
54882;BME280;40775;51.448;4.742;2023-05-19T06:43:41;102513.84;;;17.22;100.00
54882;BME280;40775;51.448;4.742;2023-05-19T06:46:09;102525.59;;;17.35;100.00
54882;BME280;40775;51.448;4.742;2023-05-19T06:48:38;102523.06;;;17.41;100.00
54882;BME280;40775;51.448;4.742;2023-05-19T06:51:05;102528.44;;;17.44;100.00
54882;BME280;40775;51.448;4.742;2023-05-19T06:53:32;102515.19;;;17.46;100.00
54882;BME280;40775;51.448;4.742;2023-05-19T06:56:00;102522.44;;;17.54;100.00
54882;BME280;40775;51.448;4.742;2023-05-19T06:58:27;102526.06;;;17.59;100.00
54882;BME280;40775;51.448;4.742;2023-05-19T07:00:54;102526.13;;;17.63;100.00
54882;BME280;40775;51.448;4.742;2023-05-19T07:03:21;102526.25;;;17.67;100.00
54882;BME280;40775;51.448;4.742;2023-05-19T07:05:49;102523.59;;;17.69;100.00
54882;BME280;40775;51.448;4.742;2023-05-19T07:08:17;102521.91;;;17.72;100.00
54882;BME280;40775;51.448;4.742;2023-05-19T07:10:44;102521.91;;;17.72;100.00
54882;BME280;40775;51.448;4.742;2023-05-19T07:13:11;102520.13;;;17.73;100.00
54882;BME280;40775;51.448;4.742;2023-05-19T07:15:38;102521.06;;;17.76;100.00
54882;BME280;40775;51.448;4.742;2023-05-19T07:18:05;102514.91;;;17.79;100.00
54882;BME280;40775;51.448;4.742;2023-05-19T07:20:32;102510.56;;;17.81;100.00
54882;BME280;40775;51.448;4.742;2023-05-19T07:23:00;102509.75;;;17.86;100.00
54882;BME280;40775;51.448;4.742;2023-05-19T07:25:28;102508.81;;;17.83;100.00
54882;BME280;40775;51.448;4.742;2023-05-19T07:27:56;102506.22;;;17.86;100.00
54882;BME280;40775;51.448;4.742;2023-05-19T07:30:26;102514.22;;;17.87;100.00
54882;BME280;40775;51.448;4.742;2023-05-19T07:32:54;102504.47;;;17.88;100.00
54882;BME280;40775;51.448;4.742;2023-05-19T07:35:21;102506.31;;;17.92;100.00
54882;BME280;40775;51.448;4.742;2023-05-19T07:37:50;102507.22;;;17.94;100.00
54882;BME280;40775;51.448;4.742;2023-05-19T07:40:18;102506.34;;;17.95;100.00
54882;BME280;40775;51.448;4.742;2023-05-19T07:42:45;102508.19;;;17.99;100.00
54882;BME280;40775;51.448;4.742;2023-05-19T07:45:12;102508.19;;;17.99;100.00
54882;BME280;40775;51.448;4.742;2023-05-19T07:47:39;102504.69;;;18.02;100.00
54882;BME280;40775;51.448;4.742;2023-05-19T07:50:07;102510.88;;;18.02;100.00
54882;BME280;40775;51.448;4.742;2023-05-19T07:52:34;102502.97;;;18.05;100.00
54882;BME280;40775;51.448;4.742;2023-05-19T07:55:03;102505.66;;;18.07;100.00
54882;BME280;40775;51.448;4.742;2023-05-19T07:57:30;102501.19;;;18.04;100.00
54882;BME280;40775;51.448;4.742;2023-05-19T07:59:58;102496.78;;;18.06;100.00
54882;BME280;40775;51.448;4.742;2023-05-19T08:02:25;102498.53;;;18.06;100.00
54882;BME280;40775;51.448;4.742;2023-05-19T08:04:52;102492.44;;;18.10;100.00
54882;BME280;40775;51.448;4.742;2023-05-19T08:07:20;102494.19;;;18.09;100.00
54882;BME280;40775;51.448;4.742;2023-05-19T08:09:47;102488.03;;;18.12;100.00
54882;BME280;40775;51.448;4.742;2023-05-19T08:12:14;102491.53;;;18.09;100.00
54882;BME280;40775;51.448;4.742;2023-05-19T08:14:41;102482.69;;;18.09;100.00
54882;BME280;40775;51.448;4.742;2023-05-19T08:17:08;102477.41;;;18.12;100.00
54882;BME280;40775;51.448;4.742;2023-05-19T08:19:35;102481.88;;;18.14;100.00
54882;BME280;40775;51.448;4.742;2023-05-19T08:22:02;102477.41;;;18.13;100.00
54882;BME280;40775;51.448;4.742;2023-05-19T08:24:30;102482.75;;;18.15;100.00
54882;BME280;40775;51.448;4.742;2023-05-19T08:26:58;102475.69;;;18.17;100.00
54882;BME280;40775;51.448;4.742;2023-05-19T08:29:25;102480.16;;;18.18;100.00
54882;BME280;40775;51.448;4.742;2023-05-19T08:31:53;102473.03;;;18.15;100.00
54882;BME280;40775;51.448;4.742;2023-05-19T08:34:20;102469.47;;;18.15;100.00
54882;BME280;40775;51.448;4.742;2023-05-19T08:36:48;102467.69;;;18.15;100.00
54882;BME280;40775;51.448;4.742;2023-05-19T08:39:15;102465.94;;;18.16;100.00
54882;BME280;40775;51.448;4.742;2023-05-19T08:41:44;102465.94;;;18.16;100.00
54882;BME280;40775;51.448;4.742;2023-05-19T08:44:11;102461.53;;;18.18;100.00
54882;BME280;40775;51.448;4.742;2023-05-19T08:46:39;102458.91;;;18.19;100.00
54882;BME280;40775;51.448;4.742;2023-05-19T08:49:13;102458.03;;;18.22;100.00
54882;BME280;40775;51.448;4.742;2023-05-19T08:54:43;102455.41;;;18.23;100.00
54882;BME280;40775;51.448;4.742;2023-05-19T08:57:12;102447.44;;;18.25;100.00
54882;BME280;40775;51.448;4.742;2023-05-19T08:59:40;102453.66;;;18.26;100.00
54882;BME280;40775;51.448;4.742;2023-05-19T09:02:10;102453.66;;;18.26;100.00
54882;BME280;40775;51.448;4.742;2023-05-19T09:04:39;102443.03;;;18.26;100.00
54882;BME280;40775;51.448;4.742;2023-05-19T09:07:07;102442.16;;;18.27;100.00
54882;BME280;40775;51.448;4.742;2023-05-19T09:09:35;102445.72;;;18.29;100.00
54882;BME280;40775;51.448;4.742;2023-05-19T09:12:02;102446.63;;;18.29;100.00
54882;BME280;40775;51.448;4.742;2023-05-19T09:14:29;102445.75;;;18.30;100.00
54882;BME280;40775;51.448;4.742;2023-05-19T09:16:58;102444.84;;;18.30;100.00
54882;BME280;40775;51.448;4.742;2023-05-19T09:19:28;102445.75;;;18.32;100.00
54882;BME280;40775;51.448;4.742;2023-05-19T09:22:00;102438.69;;;18.34;100.00
54882;BME280;40775;51.448;4.742;2023-05-19T09:24:29;102440.47;;;18.33;100.00
54882;BME280;40775;51.448;4.742;2023-05-19T09:26:57;102434.25;;;18.33;100.00
54882;BME280;40775;51.448;4.742;2023-05-19T09:29:26;102436.03;;;18.34;100.00
54882;BME280;40775;51.448;4.742;2023-05-19T09:31:54;102432.50;;;18.35;100.00
54882;BME280;40775;51.448;4.742;2023-05-19T09:34:27;102434.28;;;18.34;100.00
54882;BME280;40775;51.448;4.742;2023-05-19T09:36:54;102430.78;;;18.37;100.00
54882;BME280;40775;51.448;4.742;2023-05-19T09:39:22;102418.38;;;18.36;100.00
54882;BME280;40775;51.448;4.742;2023-05-19T09:41:55;102421.94;;;18.36;100.00
54882;BME280;40775;51.448;4.742;2023-05-19T09:44:26;102440.56;;;18.39;100.00
54882;BME280;40775;51.448;4.742;2023-05-19T09:46:57;102436.16;;;18.40;100.00
54882;BME280;40775;51.448;4.742;2023-05-19T09:49:28;102421.09;;;18.40;100.00
54882;BME280;40775;51.448;4.742;2023-05-19T09:51:58;102424.63;;;18.41;100.00
54882;BME280;40775;51.448;4.742;2023-05-19T09:54:26;102429.09;;;18.42;100.00
54882;BME280;40775;51.448;4.742;2023-05-19T09:57:00;102437.03;;;18.40;100.00
54882;BME280;40775;51.448;4.742;2023-05-19T09:59:30;102428.19;;;18.41;100.00
54882;BME280;40775;51.448;4.742;2023-05-19T10:02:00;102432.63;;;18.41;100.00
54882;BME280;40775;51.448;4.742;2023-05-19T10:04:29;102426.44;;;18.42;100.00
54882;BME280;40775;51.448;4.742;2023-05-19T10:06:58;102437.94;;;18.42;100.00
54882;BME280;40775;51.448;4.742;2023-05-19T10:09:28;102427.34;;;18.44;100.00
54882;BME280;40775;51.448;4.742;2023-05-19T10:11:57;102423.81;;;18.45;100.00
54882;BME280;40775;51.448;4.742;2023-05-19T10:14:27;102425.59;;;18.46;100.00
54882;BME280;40775;51.448;4.742;2023-05-19T10:16:57;102424.72;;;18.47;100.00
54882;BME280;40775;51.448;4.742;2023-05-19T10:19:27;102428.28;;;18.49;100.00
54882;BME280;40775;51.448;4.742;2023-05-19T10:21:55;102429.16;;;18.48;100.00
54882;BME280;40775;51.448;4.742;2023-05-19T10:24:22;102419.41;;;18.48;100.00
54882;BME280;40775;51.448;4.742;2023-05-19T10:27:01;102422.97;;;18.49;100.00
54882;BME280;40775;51.448;4.742;2023-05-19T10:29:35;102421.19;;;18.49;100.00
54882;BME280;40775;51.448;4.742;2023-05-19T10:32:10;102417.66;;;18.50;100.00
54882;BME280;40775;51.448;4.742;2023-05-19T10:41:06;102404.38;;;18.52;100.00
54882;BME280;40775;51.448;4.742;2023-05-19T10:46:15;102406.19;;;18.54;100.00
54882;BME280;40775;51.448;4.742;2023-05-19T10:48:45;102403.50;;;18.53;100.00
54882;BME280;40775;51.448;4.742;2023-05-19T10:51:14;102393.75;;;18.53;100.00
54882;BME280;40775;51.448;4.742;2023-05-19T10:53:42;102393.78;;;18.55;100.00
54882;BME280;40775;51.448;4.742;2023-05-19T10:56:32;102392.91;;;18.58;100.00
54882;BME280;40775;51.448;4.742;2023-05-19T10:59:02;102392.91;;;18.58;100.00
54882;BME280;40775;51.448;4.742;2023-05-19T11:01:34;102387.63;;;18.59;100.00
54882;BME280;40775;51.448;4.742;2023-05-19T11:04:08;102396.47;;;18.58;100.00
54882;BME280;40775;51.448;4.742;2023-05-19T11:06:40;102396.50;;;18.60;100.00
54882;BME280;40775;51.448;4.742;2023-05-19T11:09:18;102397.38;;;18.60;100.00
54882;BME280;40775;51.448;4.742;2023-05-19T11:11:54;102394.69;;;18.59;100.00
54882;BME280;40775;51.448;4.742;2023-05-19T11:14:26;102406.25;;;18.61;100.00
54882;BME280;40775;51.448;4.742;2023-05-19T11:16:58;102394.72;;;18.60;100.00
54882;BME280;40775;51.448;4.742;2023-05-19T11:19:31;102399.25;;;18.63;100.00
54882;BME280;40775;51.448;4.742;2023-05-19T11:22:09;102390.41;;;18.64;100.00
54882;BME280;40775;51.448;4.742;2023-05-19T11:24:44;102393.06;;;18.64;100.00
54882;BME280;40775;51.448;4.742;2023-05-19T11:29:56;102388.63;;;18.66;100.00
54882;BME280;40775;51.448;4.742;2023-05-19T11:32:30;102393.06;;;18.65;100.00
54882;BME280;40775;51.448;4.742;2023-05-19T11:35:00;102387.75;;;18.65;100.00
54882;BME280;40775;51.448;4.742;2023-05-19T11:37:31;102381.56;;;18.66;100.00
54882;BME280;40775;51.448;4.742;2023-05-19T11:40:02;102383.34;;;18.69;100.00
54882;BME280;40775;51.448;4.742;2023-05-19T11:42:31;102391.34;;;18.70;100.00
54882;BME280;40775;51.448;4.742;2023-05-19T11:44:59;102377.16;;;18.70;100.00
54882;BME280;40775;51.448;4.742;2023-05-19T11:47:26;102367.41;;;18.70;100.00
54882;BME280;40775;51.448;4.742;2023-05-19T11:49:54;102366.53;;;18.71;100.00
54882;BME280;40775;51.448;4.742;2023-05-19T11:52:25;102362.13;;;18.76;100.00
54882;BME280;40775;51.448;4.742;2023-05-19T11:54:53;102368.31;;;18.74;100.00
54882;BME280;40775;51.448;4.742;2023-05-19T11:57:20;102359.44;;;18.73;100.00
54882;BME280;40775;51.448;4.742;2023-05-19T11:59:48;102363.91;;;18.74;100.00
54882;BME280;40775;51.448;4.742;2023-05-19T12:02:20;102361.22;;;18.74;100.00
54882;BME280;40775;51.448;4.742;2023-05-19T12:04:48;102366.56;;;18.76;100.00
54882;BME280;40775;51.448;4.742;2023-05-19T12:07:17;102362.13;;;18.76;100.00
54882;BME280;40775;51.448;4.742;2023-05-19T12:09:45;102362.13;;;18.76;100.00
54882;BME280;40775;51.448;4.742;2023-05-19T12:12:20;102347.06;;;18.75;100.00
54882;BME280;40775;51.448;4.742;2023-05-19T12:14:51;102349.75;;;18.78;100.00
54882;BME280;40775;51.448;4.742;2023-05-19T12:17:20;102347.09;;;18.80;100.00
54882;BME280;40775;51.448;4.742;2023-05-19T12:19:50;102353.31;;;18.80;100.00
54882;BME280;40775;51.448;4.742;2023-05-19T12:22:17;102338.22;;;18.79;100.00
54882;BME280;40775;51.448;4.742;2023-05-19T12:24:45;102348.88;;;18.81;100.00
54882;BME280;40775;51.448;4.742;2023-05-19T12:27:23;102344.44;;;18.81;100.00
54882;BME280;40775;51.448;4.742;2023-05-19T12:29:55;102340.03;;;18.83;100.00
54882;BME280;40775;51.448;4.742;2023-05-19T12:32:26;102347.13;;;18.84;100.00
54882;BME280;40775;51.448;4.742;2023-05-19T12:34:55;102332.06;;;18.85;100.00
54882;BME280;40775;51.448;4.742;2023-05-19T12:37:26;102332.94;;;18.86;100.00
54882;BME280;40775;51.448;4.742;2023-05-19T12:39:55;102329.41;;;18.85;100.00
54882;BME280;40775;51.448;4.742;2023-05-19T12:42:24;102321.44;;;18.87;100.00
54882;BME280;40775;51.448;4.742;2023-05-19T12:44:53;102321.44;;;18.88;100.00
54882;BME280;40775;51.448;4.742;2023-05-19T12:47:20;102321.47;;;18.90;100.00
54882;BME280;40775;51.448;4.742;2023-05-19T12:52:26;102318.84;;;18.91;100.00
54882;BME280;40775;51.448;4.742;2023-05-19T12:55:05;102316.19;;;18.93;100.00
54882;BME280;40775;51.448;4.742;2023-05-19T12:57:38;102317.09;;;18.93;100.00
54882;BME280;40775;51.448;4.742;2023-05-19T13:00:17;102316.22;;;18.94;100.00
54882;BME280;40775;51.448;4.742;2023-05-19T13:03:02;102310.00;;;18.95;100.00
54882;BME280;40775;51.448;4.742;2023-05-19T13:05:38;102303.81;;;18.96;100.00
54882;BME280;40775;51.448;4.742;2023-05-19T13:08:12;102314.47;;;18.98;100.00
54882;BME280;40775;51.448;4.742;2023-05-19T13:10:41;102314.44;;;18.95;100.00
54882;BME280;40775;51.448;4.742;2023-05-19T13:13:09;102307.34;;;18.97;100.00
54882;BME280;40775;51.448;4.742;2023-05-19T13:15:41;102312.69;;;18.98;100.00
54882;BME280;40775;51.448;4.742;2023-05-19T13:18:10;102316.25;;;18.99;100.00
54882;BME280;40775;51.448;4.742;2023-05-19T13:20:40;102305.59;;;18.99;100.00